AQQ10 IFIS: Internet Flight Information System
logo dgac
Martes 21 de Septiembre del 2021
Buscar por aerodromo o helipuerto
Ingrese nombre de aeródromo, localidad o designador OACI:
METAR del 21-09-2021 a las 10:00 UTC
Para mayor información visite www.meteochile.cl
METAR SCAR 211000Z 14002KT CAVOK 14/10 Q1016
Viento: dirección 140 grados, velocidad 2 nudos
Visibilidad: 10 km o más,
    sin nubes bajo los 5.000 pies o bajo del MSA (Mínimo de Seguridad del Aeródromo),
    sin cumulonimbus, y sin fenómenos de tiempo significativo en el aeródromo o alrededores
Temperatura: 14 °C
Rocío: 10 °C
Humedad_relativa: 77%
Presión: 1016 hPa
METAR del 21-09-2021 a las 09:00 UTC
Para mayor información visite www.meteochile.cl
METAR SCAR 210900Z 19004KT CAVOK 14/10 Q1015
Viento: dirección 190 grados, velocidad 4 nudos
Visibilidad: 10 km o más,
    sin nubes bajo los 5.000 pies o bajo del MSA (Mínimo de Seguridad del Aeródromo),
    sin cumulonimbus, y sin fenómenos de tiempo significativo en el aeródromo o alrededores
Temperatura: 14 °C
Rocío: 10 °C
Humedad_relativa: 77%
Presión: 1015 hPa
METAR del 21-09-2021 a las 08:00 UTC
Para mayor información visite www.meteochile.cl
METAR SCAR 210800Z 21003KT 9999 FEW025 15/11 Q1015
Viento: dirección 210 grados, velocidad 3 nudos
Visibilidad: 10 km o más
Nubes: Escasa nubosidad a 2500 pies sobre el nivel del aeródromo
Temperatura: 15 °C
Rocío: 11 °C
Humedad_relativa: 77%
Presión: 1015 hPa
METAR del 21-09-2021 a las 07:00 UTC
Para mayor información visite www.meteochile.cl
METAR SCAR 210700Z 17005KT 9999 OVC026 15/11 Q1016
Viento: dirección 170 grados, velocidad 5 nudos
Visibilidad: 10 km o más
Nubes: Cubierto a 2600 pies sobre el nivel del aeródromo
Temperatura: 15 °C
Rocío: 11 °C
Humedad_relativa: 77%
Presión: 1016 hPa
METAR del 21-09-2021 a las 06:00 UTC
Para mayor información visite www.meteochile.cl
METAR SCAR 210600Z 19003KT 9999 OVC027 16/11 Q1017
Viento: dirección 190 grados, velocidad 3 nudos
Visibilidad: 10 km o más
Nubes: Cubierto a 2700 pies sobre el nivel del aeródromo
Temperatura: 16 °C
Rocío: 11 °C
Humedad_relativa: 72%
Presión: 1017 hPa
METAR del 21-09-2021 a las 05:00 UTC
Para mayor información visite www.meteochile.cl
METAR SCAR 210500Z 30002KT 9999 OVC029 15/10 Q1018
Viento: dirección 300 grados, velocidad 2 nudos
Visibilidad: 10 km o más
Nubes: Cubierto a 2900 pies sobre el nivel del aeródromo
Temperatura: 15 °C
Rocío: 10 °C
Humedad_relativa: 72%
Presión: 1018 hPa
METAR del 21-09-2021 a las 04:00 UTC
Para mayor información visite www.meteochile.cl
METAR SCAR 210400Z 25003KT 9999 OVC029 16/10 Q1018
Viento: dirección 250 grados, velocidad 3 nudos
Visibilidad: 10 km o más
Nubes: Cubierto a 2900 pies sobre el nivel del aeródromo
Temperatura: 16 °C
Rocío: 10 °C
Humedad_relativa: 68%
Presión: 1018 hPa
METAR del 21-09-2021 a las 03:00 UTC
Para mayor información visite www.meteochile.cl
METAR SCAR 210300Z VRB02KT 9999 OVC032 16/10 Q1019
Viento: dirección variable, velocidad 2 nudos
Visibilidad: 10 km o más
Nubes: Cubierto a 3200 pies sobre el nivel del aeródromo
Temperatura: 16 °C
Rocío: 10 °C
Humedad_relativa: 68%
Presión: 1019 hPa
METAR del 21-09-2021 a las 02:00 UTC
Para mayor información visite www.meteochile.cl
METAR SCAR 210200Z 15004KT 9999 OVC031 15/10 Q1019
Viento: dirección 150 grados, velocidad 4 nudos
Visibilidad: 10 km o más
Nubes: Cubierto a 3100 pies sobre el nivel del aeródromo
Temperatura: 15 °C
Rocío: 10 °C
Humedad_relativa: 72%
Presión: 1019 hPa
METAR del 21-09-2021 a las 01:00 UTC
Para mayor información visite www.meteochile.cl
METAR SCAR 210100Z 15002KT 9999 OVC029 15/11 Q1018
Viento: dirección 150 grados, velocidad 2 nudos
Visibilidad: 10 km o más
Nubes: Cubierto a 2900 pies sobre el nivel del aeródromo
Temperatura: 15 °C
Rocío: 11 °C
Humedad_relativa: 77%
Presión: 1018 hPa